Time;durP1;ratioP1;P1;durP2;ratioP2;P2;SDS_P1;SDS_P2;PMS_P1;PMS_P2;Temp;Humidity;BMP_temperature;BMP_pressure;BME280_temperature;BME280_humidity;BME280_pressure;Samples;Min_cycle;Max_cycle;Signal;HPM_P1;HPM_P2
2022/04/14 00:00:14;;;;;;;169.00;29.80;;;;;;;;;;4950381;28;20226;-55
2022/04/14 00:02:40;;;;;;;119.70;21.65;;;;;;;;;;4952482;28;20222;-54
2022/04/14 00:05:07;;;;;;;144.48;25.30;;;;;;;;;;4948416;28;20201;-55
2022/04/14 00:07:33;;;;;;;115.53;20.55;;;;;;;;;;4948608;28;20221;-54
2022/04/14 00:09:59;;;;;;;83.97;14.70;;;;;;;;;;4955012;28;20224;-54
2022/04/14 00:12:24;;;;;;;126.68;22.98;;;;;;;;;;4945854;28;20696;-54
2022/04/14 00:14:50;;;;;;;126.68;22.25;;;;;;;;;;4955427;28;20273;-53
2022/04/14 00:17:16;;;;;;;144.68;25.25;;;;;;;;;;4942514;28;20224;-54
2022/04/14 00:19:42;;;;;;;134.15;23.60;;;;;;;;;;4951827;28;20295;-54
2022/04/14 00:22:09;;;;;;;123.95;21.92;;;;;;;;;;4949478;28;20218;-54
2022/04/14 00:24:35;;;;;;;135.10;23.43;;;;;;;;;;4950314;28;20213;-54
2022/04/14 00:27:01;;;;;;;138.83;23.77;;;;;;;;;;4952162;28;20602;-54
2022/04/14 00:29:27;;;;;;;104.03;18.45;;;;;;;;;;4952452;28;20288;-55
2022/04/14 00:31:52;;;;;;;125.00;22.25;;;;;;;;;;4949451;28;20677;-54
2022/04/14 00:34:18;;;;;;;102.03;17.77;;;;;;;;;;4950431;28;20220;-54
2022/04/14 00:36:44;;;;;;;101.63;18.23;;;;;;;;;;4952062;28;20221;-54
2022/04/14 00:39:10;;;;;;;99.33;17.73;;;;;;;;;;4949700;28;20221;-54
2022/04/14 00:41:37;;;;;;;177.93;29.67;;;;;;;;;;4948558;28;20628;-54
2022/04/14 00:44:03;;;;;;;124.47;20.27;;;;;;;;;;4953648;28;20273;-54
2022/04/14 00:46:29;;;;;;;159.47;27.50;;;;;;;;;;4948986;28;20303;-55
2022/04/14 00:48:55;;;;;;;95.33;16.47;;;;;;;;;;4948728;28;20221;-55
2022/04/14 00:51:21;;;;;;;105.03;18.23;;;;;;;;;;4950022;28;20218;-54
2022/04/14 00:53:47;;;;;;;80.23;14.30;;;;;;;;;;4953735;28;20223;-55
2022/04/14 00:56:14;;;;;;;81.93;13.93;;;;;;;;;;4959341;28;20206;-54
2022/04/14 00:58:43;;;;;;;94.03;15.97;;;;;;;;;;4953329;28;20655;-55
2022/04/14 01:01:09;;;;;;;115.75;18.80;;;;;;;;;;4951266;28;20487;-54
2022/04/14 01:03:36;;;;;;;85.33;14.73;;;;;;;;;;4954399;28;20309;-54
2022/04/14 01:06:02;;;;;;;101.60;17.15;;;;;;;;;;4957227;28;20246;-53
2022/04/14 01:08:32;;;;;;;96.45;16.40;;;;;;;;;;4954128;28;20293;-55
2022/04/14 01:10:58;;;;;;;93.85;15.75;;;;;;;;;;4954601;28;20185;-54
2022/04/14 01:13:24;;;;;;;78.73;13.63;;;;;;;;;;4950619;28;20314;-54
2022/04/14 01:15:56;;;;;;;56.88;10.25;;;;;;;;;;4960835;28;20584;-54
2022/04/14 01:18:22;;;;;;;129.27;21.00;;;;;;;;;;4945471;28;20214;-55
2022/04/14 01:20:48;;;;;;;138.97;22.27;;;;;;;;;;4952990;28;20261;-54
2022/04/14 01:23:17;;;;;;;66.57;11.60;;;;;;;;;;4950292;28;20183;-54
2022/04/14 01:25:43;;;;;;;62.05;10.70;;;;;;;;;;4948006;28;20270;-54
2022/04/14 01:28:09;;;;;;;99.67;16.23;;;;;;;;;;4951115;28;20265;-55
2022/04/14 01:30:38;;;;;;;125.85;20.27;;;;;;;;;;4947601;28;20273;-54
2022/04/14 01:33:05;;;;;;;114.20;17.95;;;;;;;;;;4949042;28;20210;-53
2022/04/14 01:35:31;;;;;;;103.93;16.87;;;;;;;;;;4952691;28;20206;-54
2022/04/14 01:37:57;;;;;;;84.33;13.73;;;;;;;;;;4970068;28;20222;-54
2022/04/14 01:40:23;;;;;;;105.03;17.50;;;;;;;;;;4946423;28;20752;-53
2022/04/14 01:42:49;;;;;;;142.63;22.27;;;;;;;;;;4946717;28;20929;-54
2022/04/14 01:45:15;;;;;;;117.97;18.63;;;;;;;;;;4951167;28;20221;-53
2022/04/14 01:47:45;;;;;;;97.33;15.47;;;;;;;;;;4943907;28;20299;-54
2022/04/14 01:50:12;;;;;;;135.20;21.53;;;;;;;;;;4951305;28;20246;-54
2022/04/14 01:52:39;;;;;;;94.93;15.48;;;;;;;;;;4950178;28;20239;-54
2022/04/14 01:55:06;;;;;;;59.97;9.77;;;;;;;;;;4958135;28;20215;-55
2022/04/14 01:57:32;;;;;;;116.37;18.23;;;;;;;;;;4944454;28;20246;-54
2022/04/14 02:00:02;;;;;;;111.27;17.70;;;;;;;;;;4946627;28;20595;-54
2022/04/14 02:02:28;;;;;;;102.33;16.33;;;;;;;;;;4946075;28;20188;-54
2022/04/14 02:04:54;;;;;;;135.03;20.53;;;;;;;;;;4952091;28;20187;-54
2022/04/14 02:07:20;;;;;;;116.83;18.40;;;;;;;;;;4948695;28;20213;-54
2022/04/14 02:09:46;;;;;;;115.20;18.47;;;;;;;;;;4955724;28;20231;-53
2022/04/14 02:12:12;;;;;;;109.40;17.38;;;;;;;;;;4951613;28;20220;-54
2022/04/14 02:14:38;;;;;;;76.20;12.57;;;;;;;;;;4955699;28;20218;-54
2022/04/14 02:17:04;;;;;;;104.60;16.60;;;;;;;;;;4946123;28;20756;-53
2022/04/14 02:19:31;;;;;;;72.37;11.97;;;;;;;;;;4959412;28;20272;-53
2022/04/14 02:22:00;;;;;;;93.97;15.27;;;;;;;;;;4952762;28;20226;-54
2022/04/14 02:24:26;;;;;;;50.63;8.53;;;;;;;;;;4958007;28;20218;-54
2022/04/14 02:26:52;;;;;;;41.47;6.83;;;;;;;;;;4951703;28;20329;-53
2022/04/14 02:29:19;;;;;;;153.97;23.37;;;;;;;;;;4955916;28;20679;-53
2022/04/14 02:31:45;;;;;;;118.10;19.00;;;;;;;;;;4954102;28;20249;-53
2022/04/14 02:34:11;;;;;;;94.67;15.13;;;;;;;;;;4952152;28;20214;-54
2022/04/14 02:36:37;;;;;;;131.53;20.13;;;;;;;;;;4967909;28;20618;-54
2022/04/14 02:39:03;;;;;;;61.23;10.30;;;;;;;;;;4953337;28;20232;-52
2022/04/14 02:41:30;;;;;;;105.67;16.67;;;;;;;;;;4953217;28;20217;-53
2022/04/14 02:43:56;;;;;;;74.67;11.83;;;;;;;;;;4952021;28;20182;-53
2022/04/14 02:46:22;;;;;;;70.57;10.93;;;;;;;;;;4947427;28;20699;-53
2022/04/14 02:48:48;;;;;;;131.83;20.17;;;;;;;;;;4944737;28;20782;-53
2022/04/14 02:51:14;;;;;;;93.33;14.87;;;;;;;;;;4948391;28;20569;-54
2022/04/14 02:53:40;;;;;;;132.00;20.37;;;;;;;;;;4951983;28;20225;-53
2022/04/14 02:56:06;;;;;;;140.73;21.23;;;;;;;;;;4955952;28;20206;-54
2022/04/14 02:58:32;;;;;;;88.93;14.03;;;;;;;;;;4951778;28;20241;-54
2022/04/14 03:00:58;;;;;;;97.07;14.93;;;;;;;;;;4947815;28;20313;-54
2022/04/14 03:03:26;;;;;;;71.43;11.27;;;;;;;;;;4949141;28;20225;-54
2022/04/14 03:05:52;;;;;;;89.20;13.73;;;;;;;;;;4942447;28;20218;-53
2022/04/14 03:08:18;;;;;;;66.30;10.73;;;;;;;;;;4953595;28;20231;-54
2022/04/14 03:10:44;;;;;;;141.60;21.53;;;;;;;;;;4952458;28;20277;-54
2022/04/14 03:13:10;;;;;;;111.43;17.07;;;;;;;;;;4949944;28;21090;-55
2022/04/14 03:15:36;;;;;;;121.03;18.20;;;;;;;;;;4942708;28;20715;-53
2022/04/14 03:18:02;;;;;;;90.97;14.10;;;;;;;;;;4961922;28;20247;-54
2022/04/14 03:20:28;;;;;;;60.10;10.07;;;;;;;;;;4958759;28;20197;-54
2022/04/14 03:22:55;;;;;;;78.47;12.37;;;;;;;;;;4954707;28;20186;-54
2022/04/14 03:25:21;;;;;;;77.00;12.03;;;;;;;;;;4960254;28;20222;-54
2022/04/14 03:27:47;;;;;;;132.67;19.77;;;;;;;;;;4949978;28;20222;-54
2022/04/14 03:30:13;;;;;;;150.93;22.73;;;;;;;;;;4944025;28;20222;-54
2022/04/14 03:32:40;;;;;;;83.23;12.87;;;;;;;;;;4946129;28;20576;-54
2022/04/14 03:35:07;;;;;;;102.17;15.63;;;;;;;;;;4947794;28;20266;-53
2022/04/14 03:37:34;;;;;;;128.47;19.27;;;;;;;;;;4948359;28;20218;-54
2022/04/14 03:40:00;;;;;;;89.60;14.00;;;;;;;;;;4954038;28;20222;-53
2022/04/14 03:42:26;;;;;;;184.50;28.40;;;;;;;;;;4949552;28;20991;-54
2022/04/14 03:44:52;;;;;;;196.17;29.97;;;;;;;;;;4945920;28;22865;-54
2022/04/14 03:47:18;;;;;;;114.60;17.80;;;;;;;;;;4955235;28;20253;-54
2022/04/14 03:49:44;;;;;;;173.00;25.93;;;;;;;;;;4953745;28;20238;-54
2022/04/14 03:52:10;;;;;;;80.67;12.97;;;;;;;;;;4955833;28;20222;-54
2022/04/14 03:54:36;;;;;;;123.57;19.00;;;;;;;;;;4953352;28;20218;-54
2022/04/14 03:57:02;;;;;;;102.73;16.00;;;;;;;;;;4958136;28;20221;-54
2022/04/14 03:59:28;;;;;;;150.87;22.90;;;;;;;;;;4955416;28;20209;-54
2022/04/14 04:01:54;;;;;;;159.23;24.27;;;;;;;;;;4948412;28;20212;-54
2022/04/14 04:04:20;;;;;;;110.17;17.03;;;;;;;;;;4949890;28;21113;-54
2022/04/14 04:06:46;;;;;;;101.90;15.93;;;;;;;;;;4949812;28;20236;-53
2022/04/14 04:09:12;;;;;;;121.80;18.50;;;;;;;;;;4953107;28;20706;-54
2022/04/14 04:11:39;;;;;;;136.63;21.87;;;;;;;;;;4954184;28;20229;-54
2022/04/14 04:14:04;;;;;;;107.87;19.67;;;;;;;;;;4953454;28;20838;-54
2022/04/14 04:16:30;;;;;;;95.30;17.23;;;;;;;;;;4951316;28;20929;-53
2022/04/14 04:18:56;;;;;;;129.57;21.80;;;;;;;;;;4953962;28;20215;-54
2022/04/14 04:21:24;;;;;;;147.50;24.40;;;;;;;;;;4948186;28;21031;-53
2022/04/14 04:23:50;;;;;;;143.70;23.73;;;;;;;;;;4948459;28;20214;-53
2022/04/14 04:26:16;;;;;;;98.80;17.07;;;;;;;;;;4952443;28;20202;-53
2022/04/14 04:28:42;;;;;;;116.33;19.07;;;;;;;;;;4954921;28;20233;-53
2022/04/14 04:31:08;;;;;;;190.60;31.67;;;;;;;;;;4946242;28;20214;-54
2022/04/14 04:33:34;;;;;;;136.70;21.63;;;;;;;;;;4953653;28;20245;-54
2022/04/14 04:36:00;;;;;;;159.83;24.80;;;;;;;;;;4946580;28;20470;-54
2022/04/14 04:38:26;;;;;;;89.10;15.07;;;;;;;;;;4954590;28;20199;-53
2022/04/14 04:40:52;;;;;;;136.37;21.87;;;;;;;;;;4952445;28;20658;-53
2022/04/14 04:43:18;;;;;;;109.03;17.43;;;;;;;;;;4957530;28;20210;-54
2022/04/14 04:45:44;;;;;;;153.43;24.23;;;;;;;;;;4944092;28;20258;-53
2022/04/14 04:48:10;;;;;;;129.03;20.40;;;;;;;;;;4949088;28;20229;-53
2022/04/14 04:50:36;;;;;;;207.70;32.07;;;;;;;;;;4945444;28;20217;-53
2022/04/14 04:53:04;;;;;;;92.03;14.70;;;;;;;;;;4959401;28;20179;-53
2022/04/14 04:55:30;;;;;;;128.33;20.17;;;;;;;;;;4955322;28;20261;-54
2022/04/14 04:57:56;;;;;;;89.07;14.17;;;;;;;;;;4964081;28;20214;-53
2022/04/14 05:00:22;;;;;;;191.53;28.93;;;;;;;;;;4951907;28;20714;-53
2022/04/14 05:02:48;;;;;;;72.90;11.90;;;;;;;;;;4956531;28;20260;-54
2022/04/14 05:05:14;;;;;;;142.80;22.23;;;;;;;;;;4956096;28;20193;-53
2022/04/14 05:07:40;;;;;;;75.57;12.03;;;;;;;;;;4957588;28;20381;-53
2022/04/14 05:10:07;;;;;;;99.33;15.53;;;;;;;;;;4959717;28;20722;-53
2022/04/14 05:12:34;;;;;;;80.87;12.63;;;;;;;;;;4951703;28;20778;-53
2022/04/14 05:14:59;;;;;;;109.00;16.73;;;;;;;;;;4950219;28;20556;-53
2022/04/14 05:17:25;;;;;;;138.53;20.87;;;;;;;;;;4951095;28;20224;-53
2022/04/14 05:19:51;;;;;;;215.87;31.60;;;;;;;;;;4956448;28;20341;-53
2022/04/14 05:22:17;;;;;;;109.60;16.87;;;;;;;;;;4960283;28;20297;-54
2022/04/14 05:24:43;;;;;;;80.80;12.60;;;;;;;;;;4956587;28;20246;-54
2022/04/14 05:27:09;;;;;;;61.80;10.30;;;;;;;;;;4957915;28;20606;-53
2022/04/14 05:29:36;;;;;;;189.20;30.77;;;;;;;;;;4962198;28;20818;-53
2022/04/14 05:32:02;;;;;;;140.23;22.20;;;;;;;;;;4944235;28;20195;-55
2022/04/14 05:34:28;;;;;;;121.10;19.50;;;;;;;;;;4954561;28;20789;-55
2022/04/14 05:36:53;;;;;;;71.67;11.60;;;;;;;;;;4948512;28;20219;-55
2022/04/14 05:39:19;;;;;;;162.13;25.47;;;;;;;;;;4953754;28;20285;-55
2022/04/14 05:41:45;;;;;;;166.43;25.60;;;;;;;;;;4953872;28;20221;-55
2022/04/14 05:44:11;;;;;;;176.50;27.13;;;;;;;;;;4947394;28;20305;-55
2022/04/14 05:46:38;;;;;;;177.13;27.07;;;;;;;;;;4945215;28;20644;-55
2022/04/14 05:49:04;;;;;;;110.77;17.63;;;;;;;;;;4939207;28;20222;-55
2022/04/14 05:51:30;;;;;;;83.03;13.90;;;;;;;;;;4951375;28;20222;-56
2022/04/14 05:53:56;;;;;;;230.07;36.20;;;;;;;;;;4947716;28;20209;-56
2022/04/14 05:56:22;;;;;;;93.43;15.53;;;;;;;;;;4949588;28;20691;-56
2022/04/14 05:58:48;;;;;;;223.63;34.57;;;;;;;;;;4946854;28;20312;-56
2022/04/14 06:01:14;;;;;;;232.20;38.07;;;;;;;;;;4932760;28;20330;-55
2022/04/14 06:03:40;;;;;;;200.00;32.80;;;;;;;;;;4946077;28;20222;-55
2022/04/14 06:06:06;;;;;;;192.07;30.23;;;;;;;;;;4931043;28;20222;-55
2022/04/14 06:08:32;;;;;;;223.40;32.87;;;;;;;;;;4937843;28;20191;-55
2022/04/14 06:10:59;;;;;;;211.97;31.83;;;;;;;;;;4940933;28;20175;-55
2022/04/14 06:13:25;;;;;;;150.50;23.30;;;;;;;;;;4947812;28;20211;-55
2022/04/14 06:15:51;;;;;;;131.03;21.77;;;;;;;;;;4941536;28;20242;-56
2022/04/14 06:18:17;;;;;;;153.97;24.53;;;;;;;;;;4952187;28;20289;-53
2022/04/14 06:20:47;;;;;;;125.25;19.67;;;;;;;;;;4944662;28;20211;-54
2022/04/14 06:23:16;;;;;;;92.43;15.03;;;;;;;;;;4967004;28;20658;-53
2022/04/14 06:25:45;;;;;;;172.00;29.00;;;;;;;;;;4950052;28;21006;-53
2022/04/14 06:28:11;;;;;;;141.00;23.83;;;;;;;;;;4956056;28;20691;-53
2022/04/14 06:30:37;;;;;;;277.63;44.67;;;;;;;;;;4943412;28;20250;-53
2022/04/14 06:33:04;;;;;;;113.90;18.10;;;;;;;;;;4945382;28;20347;-53
2022/04/14 06:35:30;;;;;;;286.73;44.83;;;;;;;;;;4946791;28;20210;-54
2022/04/14 06:37:56;;;;;;;79.70;13.52;;;;;;;;;;4949611;28;20223;-54
2022/04/14 06:40:22;;;;;;;168.13;28.20;;;;;;;;;;4960047;28;20221;-53
2022/04/14 06:42:49;;;;;;;204.63;33.95;;;;;;;;;;4937866;28;20709;-54
2022/04/14 06:45:15;;;;;;;264.45;45.67;;;;;;;;;;4943169;28;20218;-53
2022/04/14 06:47:41;;;;;;;152.23;26.75;;;;;;;;;;4970359;28;20217;-52
2022/04/14 06:50:07;;;;;;;210.80;33.70;;;;;;;;;;4957522;28;20222;-53
2022/04/14 06:52:33;;;;;;;231.07;40.28;;;;;;;;;;4942092;28;20231;-53
2022/04/14 06:55:00;;;;;;;98.95;17.10;;;;;;;;;;4952856;28;20675;-52
2022/04/14 06:57:26;;;;;;;169.18;28.35;;;;;;;;;;4957468;28;20218;-53
2022/04/14 06:59:52;;;;;;;113.38;20.85;;;;;;;;;;4958120;28;20214;-53
2022/04/14 07:02:18;;;;;;;84.85;15.27;;;;;;;;;;4964320;28;20186;-53
2022/04/14 07:04:44;;;;;;;101.57;18.00;;;;;;;;;;4960537;28;20818;-53
2022/04/14 07:07:10;;;;;;;111.35;19.33;;;;;;;;;;4959997;28;20642;-53
2022/04/14 07:09:36;;;;;;;174.95;29.05;;;;;;;;;;4959278;28;20691;-53
2022/04/14 07:12:02;;;;;;;82.68;15.15;;;;;;;;;;4962996;28;20214;-53
2022/04/14 07:14:29;;;;;;;91.93;16.38;;;;;;;;;;4970355;28;20576;-53
2022/04/14 07:16:56;;;;;;;124.82;23.20;;;;;;;;;;4956082;28;20202;-53
2022/04/14 07:19:22;;;;;;;107.78;21.10;;;;;;;;;;4963696;28;20567;-53
2022/04/14 07:21:48;;;;;;;131.25;26.20;;;;;;;;;;4963963;28;20214;-53
2022/04/14 07:24:14;;;;;;;120.47;23.38;;;;;;;;;;4957795;28;20260;-53
2022/04/14 07:26:40;;;;;;;93.90;19.30;;;;;;;;;;4964460;28;20244;-53
2022/04/14 07:29:06;;;;;;;114.03;22.35;;;;;;;;;;4962822;28;20198;-53
2022/04/14 07:31:32;;;;;;;144.35;28.25;;;;;;;;;;4962621;28;20277;-53
2022/04/14 07:33:58;;;;;;;103.07;18.33;;;;;;;;;;4968920;28;20242;-53
2022/04/14 07:36:25;;;;;;;93.35;16.95;;;;;;;;;;4962743;28;20318;-53
2022/04/14 07:38:51;;;;;;;79.93;14.35;;;;;;;;;;4962603;28;20712;-53
2022/04/14 07:41:17;;;;;;;62.22;11.70;;;;;;;;;;4965046;28;20183;-53
2022/04/14 07:43:42;;;;;;;93.47;18.00;;;;;;;;;;4964492;28;20225;-53
2022/04/14 07:46:09;;;;;;;142.32;25.92;;;;;;;;;;4956183;28;20229;-53
2022/04/14 07:48:35;;;;;;;110.88;20.27;;;;;;;;;;4954778;28;20219;-53
2022/04/14 07:51:01;;;;;;;91.97;16.40;;;;;;;;;;4958716;28;20226;-54
2022/04/14 07:53:27;;;;;;;116.20;20.85;;;;;;;;;;4962737;28;20178;-53
2022/04/14 07:55:54;;;;;;;68.97;12.38;;;;;;;;;;4969972;28;20598;-54
2022/04/14 07:58:20;;;;;;;146.73;27.00;;;;;;;;;;4970767;28;20225;-54
2022/04/14 08:00:47;;;;;;;82.63;14.65;;;;;;;;;;4964560;28;20687;-53
2022/04/14 08:03:13;;;;;;;100.60;16.83;;;;;;;;;;4960107;28;20722;-53
2022/04/14 08:05:43;;;;;;;91.15;16.27;;;;;;;;;;4965315;28;20288;-53
2022/04/14 08:08:10;;;;;;;99.95;16.90;;;;;;;;;;4966753;28;20189;-54
2022/04/14 08:10:36;;;;;;;69.55;11.75;;;;;;;;;;4967354;28;20234;-53
2022/04/14 08:13:02;;;;;;;108.88;18.10;;;;;;;;;;4965988;28;20705;-53
2022/04/14 08:15:29;;;;;;;77.53;13.43;;;;;;;;;;4962404;28;20299;-53
2022/04/14 08:17:55;;;;;;;91.90;16.15;;;;;;;;;;4969245;28;20206;-53
2022/04/14 08:20:21;;;;;;;102.00;17.80;;;;;;;;;;4961101;28;20232;-53
2022/04/14 08:22:54;;;;;;;76.63;13.32;;;;;;;;;;4966521;28;20181;-53
2022/04/14 08:25:22;;;;;;;90.75;15.50;;;;;;;;;;4967369;28;20236;-53
2022/04/14 08:27:49;;;;;;;58.63;10.43;;;;;;;;;;4968331;28;20249;-53
2022/04/14 08:30:16;;;;;;;88.95;16.35;;;;;;;;;;4968961;28;20246;-53
2022/04/14 08:32:43;;;;;;;59.70;11.18;;;;;;;;;;4971296;28;20718;-53
2022/04/14 08:35:10;;;;;;;96.45;17.33;;;;;;;;;;4971681;28;20184;-54
2022/04/14 08:37:36;;;;;;;76.38;14.07;;;;;;;;;;4967480;28;20225;-53
2022/04/14 08:40:02;;;;;;;77.22;14.70;;;;;;;;;;4967216;28;20225;-54
2022/04/14 08:42:32;;;;;;;83.25;15.35;;;;;;;;;;4965391;28;20728;-54
2022/04/14 08:45:02;;;;;;;100.63;19.08;;;;;;;;;;4969625;28;20211;-53
2022/04/14 08:47:29;;;;;;;124.57;23.67;;;;;;;;;;4965253;28;20226;-53
2022/04/14 08:49:57;;;;;;;145.68;27.55;;;;;;;;;;4962184;28;20202;-54
2022/04/14 08:52:23;;;;;;;96.05;18.05;;;;;;;;;;4974040;28;20218;-55
2022/04/14 08:54:49;;;;;;;147.68;27.98;;;;;;;;;;4968976;28;20260;-54
2022/04/14 08:57:15;;;;;;;54.53;10.48;;;;;;;;;;4960971;28;20218;-54
2022/04/14 08:59:46;;;;;;;97.25;17.92;;;;;;;;;;4964545;28;20245;-53
2022/04/14 09:02:14;;;;;;;99.00;18.83;;;;;;;;;;4969103;28;20183;-54
2022/04/14 09:04:41;;;;;;;72.93;14.27;;;;;;;;;;4967358;28;20210;-53
2022/04/14 09:07:08;;;;;;;111.18;21.13;;;;;;;;;;4968037;28;20707;-53
2022/04/14 09:09:34;;;;;;;77.40;14.32;;;;;;;;;;4959698;28;20321;-54
2022/04/14 09:12:00;;;;;;;73.65;13.93;;;;;;;;;;4967558;28;20829;-53
2022/04/14 09:14:27;;;;;;;110.10;21.00;;;;;;;;;;4967179;28;20660;-53
2022/04/14 09:16:53;;;;;;;74.22;15.07;;;;;;;;;;4967285;28;20206;-54
2022/04/14 09:19:19;;;;;;;88.43;16.65;;;;;;;;;;4965699;28;20467;-54
2022/04/14 09:21:58;;;;;;;90.80;17.65;;;;;;;;;;4966803;28;20568;-53
2022/04/14 09:24:44;;;;;;;59.90;12.20;;;;;;;;;;4970788;28;20206;-54
2022/04/14 09:27:22;;;;;;;69.00;13.77;;;;;;;;;;4965155;28;20230;-53
2022/04/14 09:29:48;;;;;;;68.10;13.52;;;;;;;;;;4964531;28;20241;-54
2022/04/14 09:32:26;;;;;;;114.85;21.52;;;;;;;;;;4972975;28;20269;-53
2022/04/14 09:34:52;;;;;;;100.13;20.67;;;;;;;;;;4963205;28;20683;-54
2022/04/14 09:37:20;;;;;;;91.90;18.58;;;;;;;;;;4967060;28;20230;-53
2022/04/14 09:39:55;;;;;;;91.38;18.17;;;;;;;;;;4966172;28;20389;-53
2022/04/14 09:42:21;;;;;;;87.68;17.65;;;;;;;;;;4965652;28;20210;-53
2022/04/14 09:44:48;;;;;;;73.13;14.77;;;;;;;;;;4963906;28;20214;-53
2022/04/14 09:47:22;;;;;;;73.10;14.95;;;;;;;;;;4963609;28;20198;-53
2022/04/14 09:49:48;;;;;;;57.67;12.63;;;;;;;;;;4963000;28;20230;-54
2022/04/14 09:52:14;;;;;;;84.22;17.30;;;;;;;;;;4968059;28;20221;-53
2022/04/14 09:54:40;;;;;;;104.22;21.52;;;;;;;;;;4971311;28;20619;-53
2022/04/14 09:57:10;;;;;;;102.20;21.30;;;;;;;;;;4962744;28;20741;-53
2022/04/14 09:59:40;;;;;;;106.47;21.27;;;;;;;;;;4959738;28;20190;-53
2022/04/14 10:02:09;;;;;;;87.63;17.65;;;;;;;;;;4967123;28;20167;-54
2022/04/14 10:04:36;;;;;;;86.53;17.20;;;;;;;;;;4963736;28;20210;-55
2022/04/14 10:07:03;;;;;;;93.70;18.85;;;;;;;;;;4959543;28;20230;-54
2022/04/14 10:09:30;;;;;;;102.95;20.15;;;;;;;;;;4965459;28;20222;-55
2022/04/14 10:11:56;;;;;;;56.33;11.48;;;;;;;;;;4968276;28;20209;-54
2022/04/14 10:14:24;;;;;;;263.42;50.33;;;;;;;;;;4946697;28;20178;-55
2022/04/14 10:16:50;;;;;;;259.55;60.88;;;;;;;;;;4946711;28;20565;-54
2022/04/14 10:19:16;;;;;;;133.48;28.05;;;;;;;;;;4946839;28;20222;-56
2022/04/14 10:21:44;;;;;;;95.78;20.65;;;;;;;;;;4948527;28;20218;-52
2022/04/14 10:24:11;;;;;;;158.93;33.13;;;;;;;;;;4947051;28;20305;-55
2022/04/14 10:26:38;;;;;;;182.82;44.45;;;;;;;;;;4948429;28;20361;-54
2022/04/14 10:29:06;;;;;;;215.98;46.70;;;;;;;;;;4936755;28;21193;-53
2022/04/14 10:31:34;;;;;;;232.57;45.85;;;;;;;;;;4938289;28;20214;-53
2022/04/14 10:34:04;;;;;;;376.42;73.97;;;;;;;;;;4923616;28;20225;-52
2022/04/14 10:36:30;;;;;;;160.00;37.47;;;;;;;;;;4936975;28;20219;-52
2022/04/14 10:38:57;;;;;;;189.88;40.83;;;;;;;;;;4943743;28;20238;-52
2022/04/14 10:41:25;;;;;;;173.02;34.88;;;;;;;;;;4943848;28;20190;-52
2022/04/14 10:43:51;;;;;;;227.82;46.10;;;;;;;;;;4933813;28;20175;-53
2022/04/14 10:46:18;;;;;;;89.72;20.80;;;;;;;;;;4941103;28;20213;-52
2022/04/14 10:48:44;;;;;;;112.53;24.75;;;;;;;;;;4918162;28;20215;-54
2022/04/14 10:51:20;;;;;;;266.52;59.97;;;;;;;;;;4913330;28;20725;-52
2022/04/14 10:53:56;;;;;;;129.07;32.55;;;;;;;;;;4957673;28;20576;-53
2022/04/14 10:56:34;;;;;;;373.50;98.13;;;;;;;;;;4918265;28;20194;-54
2022/04/14 10:59:00;;;;;;;340.15;66.93;;;;;;;;;;4912099;28;20197;-56
2022/04/14 11:01:53;;;;;;;324.00;65.63;;;;;;;;;;4920723;28;20222;-53
2022/04/14 11:04:29;;;;;;;171.00;38.25;;;;;;;;;;4909513;28;20226;-51
2022/04/14 11:07:01;;;;;;;110.85;28.30;;;;;;;;;;4957932;28;20224;-52
2022/04/14 11:09:40;;;;;;;244.85;60.42;;;;;;;;;;4927882;28;21456;-52
2022/04/14 11:12:06;;;;;;;249.68;48.40;;;;;;;;;;4947795;28;20253;-55
2022/04/14 11:14:49;;;;;;;169.95;35.80;;;;;;;;;;4959076;28;20197;-51
2022/04/14 11:17:48;;;;;;;156.45;33.80;;;;;;;;;;4969935;28;20197;-55
2022/04/14 11:20:17;;;;;;;110.50;24.35;;;;;;;;;;4952427;28;20775;-55
2022/04/14 11:23:02;;;;;;;274.58;58.33;;;;;;;;;;4926092;28;20225;-53
2022/04/14 11:25:49;;;;;;;112.85;29.00;;;;;;;;;;4919027;28;20230;-54
2022/04/14 11:28:30;;;;;;;181.40;38.75;;;;;;;;;;4940351;28;20214;-55
2022/04/14 11:30:57;;;;;;;412.35;80.90;;;;;;;;;;4902309;28;20222;-53
2022/04/14 11:33:25;;;;;;;212.50;43.33;;;;;;;;;;4944419;28;20587;-52
2022/04/14 11:35:52;;;;;;;378.33;94.40;;;;;;;;;;4923056;28;21162;-53
2022/04/14 11:38:36;;;;;;;331.98;72.07;;;;;;;;;;4931427;28;20202;-56
2022/04/14 11:41:02;;;;;;;287.42;57.92;;;;;;;;;;4921971;28;20671;-55
2022/04/14 11:43:28;;;;;;;153.50;35.50;;;;;;;;;;4935858;28;20246;-54
2022/04/14 11:45:54;;;;;;;254.25;68.28;;;;;;;;;;4899500;28;20586;-55
2022/04/14 11:48:21;;;;;;;302.08;76.82;;;;;;;;;;4909676;28;20230;-55
2022/04/14 11:50:55;;;;;;;383.23;101.65;;;;;;;;;;4913460;28;20226;-55
2022/04/14 11:53:29;;;;;;;193.02;41.80;;;;;;;;;;4947065;28;20193;-52
2022/04/14 11:55:56;;;;;;;129.73;31.65;;;;;;;;;;4915732;28;20194;-54
2022/04/14 11:58:22;;;;;;;309.08;80.78;;;;;;;;;;4921161;28;20958;-53
2022/04/14 12:00:49;;;;;;;283.08;71.00;;;;;;;;;;4933403;28;20381;-51
2022/04/14 12:03:15;;;;;;;120.20;31.23;;;;;;;;;;4949328;28;20739;-51
2022/04/14 12:05:51;;;;;;;169.80;45.25;;;;;;;;;;4947503;28;20236;-52
2022/04/14 12:08:17;;;;;;;72.13;19.80;;;;;;;;;;4950206;28;20201;-55
2022/04/14 12:10:44;;;;;;;64.63;17.40;;;;;;;;;;4970418;28;20611;-55
2022/04/14 12:13:11;;;;;;;106.40;25.85;;;;;;;;;;4977229;28;20206;-55
2022/04/14 12:15:37;;;;;;;70.28;18.08;;;;;;;;;;4972547;28;20233;-52
2022/04/14 12:18:11;;;;;;;105.53;26.80;;;;;;;;;;4967341;28;20214;-54
2022/04/14 12:20:39;;;;;;;90.35;23.30;;;;;;;;;;4960915;28;20286;-53
2022/04/14 12:23:07;;;;;;;51.58;14.48;;;;;;;;;;4968574;28;20249;-53
2022/04/14 12:25:33;;;;;;;123.55;29.60;;;;;;;;;;4961219;28;20222;-54
2022/04/14 12:28:01;;;;;;;87.82;21.83;;;;;;;;;;4965503;28;20213;-53
2022/04/14 12:30:29;;;;;;;54.90;16.02;;;;;;;;;;4975043;28;20257;-54
2022/04/14 12:33:02;;;;;;;95.05;25.15;;;;;;;;;;4969361;28;20263;-54
2022/04/14 12:35:31;;;;;;;83.13;23.60;;;;;;;;;;4969265;28;20202;-54
2022/04/14 12:38:10;;;;;;;76.22;18.50;;;;;;;;;;4969855;28;20560;-53
2022/04/14 12:40:36;;;;;;;77.10;19.80;;;;;;;;;;4965148;28;20276;-54
2022/04/14 12:43:04;;;;;;;69.03;17.42;;;;;;;;;;4966488;28;20273;-54
2022/04/14 12:45:37;;;;;;;61.40;15.52;;;;;;;;;;4968466;28;20309;-54
2022/04/14 12:48:05;;;;;;;61.42;15.55;;;;;;;;;;4973551;28;20232;-54
2022/04/14 12:50:31;;;;;;;104.80;26.17;;;;;;;;;;4961659;28;20770;-54
2022/04/14 12:52:57;;;;;;;59.72;15.13;;;;;;;;;;4971499;28;20170;-53
2022/04/14 12:55:28;;;;;;;88.85;21.27;;;;;;;;;;4967288;28;20256;-54
2022/04/14 12:58:13;;;;;;;64.38;16.45;;;;;;;;;;4972427;28;20214;-54
2022/04/14 13:00:39;;;;;;;61.88;15.32;;;;;;;;;;4963766;28;20210;-53
2022/04/14 13:03:13;;;;;;;63.30;16.25;;;;;;;;;;4969991;28;20245;-54
2022/04/14 13:05:39;;;;;;;88.80;22.35;;;;;;;;;;4967449;28;20205;-54
2022/04/14 13:08:06;;;;;;;97.97;25.10;;;;;;;;;;4966091;28;20213;-54
2022/04/14 13:10:36;;;;;;;90.13;23.33;;;;;;;;;;4962678;28;20707;-54
2022/04/14 13:13:03;;;;;;;92.45;23.08;;;;;;;;;;4966069;28;20252;-54
2022/04/14 13:15:29;;;;;;;89.68;23.05;;;;;;;;;;4963594;28;20210;-55
2022/04/14 13:17:55;;;;;;;96.50;23.98;;;;;;;;;;4959753;28;20584;-54
2022/04/14 13:20:24;;;;;;;94.63;22.95;;;;;;;;;;4961775;28;20795;-54
2022/04/14 13:22:54;;;;;;;55.75;14.55;;;;;;;;;;4969474;28;20210;-54
2022/04/14 13:25:22;;;;;;;68.18;16.52;;;;;;;;;;4974126;28;20249;-54
2022/04/14 13:27:49;;;;;;;68.85;16.02;;;;;;;;;;4971434;28;20647;-54
2022/04/14 13:30:15;;;;;;;79.38;17.83;;;;;;;;;;4970622;28;20246;-54
2022/04/14 13:32:41;;;;;;;79.07;18.63;;;;;;;;;;4962422;28;20218;-54
2022/04/14 13:35:07;;;;;;;101.13;22.42;;;;;;;;;;4968192;28;20320;-54
2022/04/14 13:37:33;;;;;;;110.78;25.13;;;;;;;;;;4962142;28;20214;-54
2022/04/14 13:40:02;;;;;;;88.05;20.20;;;;;;;;;;4962658;28;20214;-54
2022/04/14 13:42:29;;;;;;;98.57;21.20;;;;;;;;;;4967787;28;20226;-54
2022/04/14 13:44:55;;;;;;;70.75;16.75;;;;;;;;;;4974261;28;20209;-54
2022/04/14 13:47:21;;;;;;;98.30;22.45;;;;;;;;;;4967271;28;20209;-55
2022/04/14 13:49:47;;;;;;;100.38;22.23;;;;;;;;;;4958996;28;20214;-54
2022/04/14 13:52:13;;;;;;;89.38;19.38;;;;;;;;;;4968075;28;20369;-54
2022/04/14 13:54:39;;;;;;;76.82;17.25;;;;;;;;;;4966252;28;20211;-54
2022/04/14 13:57:05;;;;;;;80.97;17.95;;;;;;;;;;4965487;28;20297;-54
2022/04/14 13:59:31;;;;;;;99.30;20.88;;;;;;;;;;4967160;28;20186;-54
2022/04/14 14:01:57;;;;;;;96.50;21.13;;;;;;;;;;4966263;28;20221;-54
2022/04/14 14:04:23;;;;;;;77.18;17.35;;;;;;;;;;4965559;28;20218;-54
2022/04/14 14:06:49;;;;;;;83.90;17.90;;;;;;;;;;4966787;28;20249;-53
2022/04/14 14:09:15;;;;;;;112.25;24.42;;;;;;;;;;4965603;28;20307;-54
2022/04/14 14:11:42;;;;;;;84.00;18.60;;;;;;;;;;4968704;28;20229;-54